createdAt,value
2018-04-19T00:01:57.848Z,95650.48
2018-04-19T00:04:25.478Z,95655.25
2018-04-19T00:06:53.101Z,95667.13
2018-04-19T00:09:20.757Z,95663.09
2018-04-19T00:11:48.495Z,95660.59
2018-04-19T00:14:16.176Z,95662.88
2018-04-19T00:16:43.787Z,95663.09
2018-04-19T00:19:11.445Z,95662.93
2018-04-19T00:21:39.185Z,95656.80
2018-04-19T00:24:06.769Z,95655.08
2018-04-19T00:26:34.440Z,95655.43
2018-04-19T00:29:02.079Z,95651.05
2018-04-19T00:31:30.144Z,95645.05
2018-04-19T00:33:57.732Z,95646.33
2018-04-19T00:36:25.392Z,95652.23
2018-04-19T00:38:52.984Z,95647.91
2018-04-19T00:41:20.617Z,95652.96
2018-04-19T00:43:48.296Z,95647.70
2018-04-19T00:46:16.036Z,95651.55
2018-04-19T00:48:43.660Z,95650.84
2018-04-19T00:51:11.288Z,95662.81
2018-04-19T00:53:38.875Z,95651.88
2018-04-19T00:56:06.492Z,95655.45
2018-04-19T00:58:34.100Z,95651.71
2018-04-19T01:01:01.731Z,95657.03
2018-04-19T01:03:29.416Z,95653.80
2018-04-19T01:05:57.009Z,95654.32
2018-04-19T01:08:24.668Z,95654.16
2018-04-19T01:10:52.332Z,95650.41
2018-04-19T01:13:20.028Z,95655.74
2018-04-19T01:15:47.636Z,95655.45
2018-04-19T01:18:15.243Z,95653.96
2018-04-19T01:20:42.929Z,95654.73
2018-04-19T01:23:10.561Z,95657.23
2018-04-19T01:25:38.259Z,95663.18
2018-04-19T01:28:05.901Z,95660.97
2018-04-19T01:30:33.542Z,95654.69
2018-04-19T01:33:01.168Z,95652.02
2018-04-19T01:35:40.497Z,95653.38
2018-04-19T01:38:08.201Z,95656.47
2018-04-19T01:40:35.903Z,95654.59
2018-04-19T01:43:03.612Z,95651.03
2018-04-19T01:45:32.213Z,95654.52
2018-04-19T01:47:59.884Z,95655.33
2018-04-19T01:50:27.521Z,95656.37
2018-04-19T01:52:55.183Z,95661.14
2018-04-19T01:55:22.816Z,95653.55
2018-04-19T01:57:50.455Z,95656.45
2018-04-19T02:00:18.078Z,95651.44
2018-04-19T02:02:45.719Z,95652.98
2018-04-19T02:05:13.325Z,95656.63
2018-04-19T02:07:40.953Z,95659.77
2018-04-19T02:10:08.619Z,95652.66
2018-04-19T02:12:36.283Z,95653.86
2018-04-19T02:15:03.946Z,95661.23
2018-04-19T02:17:31.879Z,95654.77
2018-04-19T02:20:00.327Z,95649.44
2018-04-19T02:22:27.975Z,95653.06
2018-04-19T02:24:55.579Z,95652.73
2018-04-19T02:27:23.391Z,95653.70
2018-04-19T02:29:50.983Z,95656.30
2018-04-19T02:32:18.625Z,95654.11
2018-04-19T02:34:46.249Z,95656.02
2018-04-19T02:37:13.912Z,95652.30
2018-04-19T02:39:41.662Z,95646.72
2018-04-19T02:42:09.253Z,95641.34
2018-04-19T02:44:36.841Z,95634.78
2018-04-19T02:47:04.493Z,95638.71
2018-04-19T02:49:32.115Z,95640.29
2018-04-19T02:51:59.782Z,95641.37
2018-04-19T02:54:27.611Z,95636.34
2018-04-19T02:56:55.337Z,95638.06
2018-04-19T02:59:22.991Z,95641.13
2018-04-19T03:01:50.598Z,95636.36
2018-04-19T03:04:18.266Z,95638.33
2018-04-19T03:06:45.936Z,95639.31
2018-04-19T03:09:13.539Z,95633.39
2018-04-19T03:11:41.205Z,95627.70
2018-04-19T03:14:08.810Z,95631.83
2018-04-19T03:16:36.471Z,95637.79
2018-04-19T03:19:04.150Z,95631.78
2018-04-19T03:21:31.797Z,95631.31
2018-04-19T03:23:59.407Z,95630.55
2018-04-19T03:26:27.049Z,95636.00
2018-04-19T03:28:54.664Z,95636.25
2018-04-19T03:31:22.309Z,95634.63
2018-04-19T03:33:49.916Z,95629.83
2018-04-19T03:36:17.833Z,95629.65
2018-04-19T03:38:45.463Z,95626.41
2018-04-19T03:41:13.042Z,95629.69
2018-04-19T03:43:40.698Z,95627.30
2018-04-19T03:46:08.370Z,95625.81
2018-04-19T03:48:36.035Z,95631.22
2018-04-19T03:51:03.632Z,95632.61
2018-04-19T03:53:31.270Z,95632.13
2018-04-19T03:55:59.022Z,95631.09
2018-04-19T03:58:26.682Z,95629.05
2018-04-19T04:00:54.305Z,95620.81
2018-04-19T04:03:21.936Z,95623.37
2018-04-19T04:05:49.666Z,95626.55
2018-04-19T04:08:17.275Z,95624.69
2018-04-19T04:10:45.725Z,95631.11
2018-04-19T04:13:13.315Z,95629.72
2018-04-19T04:15:40.946Z,95627.99
2018-04-19T04:18:20.348Z,95624.77
2018-04-19T04:20:59.766Z,95632.17
2018-04-19T04:23:50.856Z,95631.56
2018-04-19T04:26:18.588Z,95634.43
2018-04-19T04:28:47.757Z,95634.70
2018-04-19T04:31:15.414Z,95634.93
2018-04-19T04:33:43.039Z,95638.39
2018-04-19T04:36:10.673Z,95638.72
2018-04-19T04:38:39.196Z,95638.59
2018-04-19T04:41:06.856Z,95639.80
2018-04-19T04:43:34.488Z,95644.62
2018-04-19T04:46:02.121Z,95642.88
2018-04-19T04:48:29.744Z,95643.58
2018-04-19T04:50:57.465Z,95645.11
2018-04-19T04:53:25.103Z,95644.62
2018-04-19T04:55:52.765Z,95640.48
2018-04-19T04:58:20.350Z,95642.98
2018-04-19T05:00:48.016Z,95638.63
2018-04-19T05:03:15.657Z,95641.55
2018-04-19T05:05:43.369Z,95642.44
2018-04-19T05:08:11.071Z,95637.88
2018-04-19T05:10:38.675Z,95637.14
2018-04-19T05:13:06.553Z,95638.80
2018-04-19T05:15:34.168Z,95638.88
2018-04-19T05:18:01.852Z,95642.41
2018-04-19T05:20:29.451Z,95639.29
2018-04-19T05:22:57.088Z,95639.77
2018-04-19T05:25:24.744Z,95639.67
2018-04-19T05:27:52.357Z,95640.98
2018-04-19T05:30:20.004Z,95645.28
2018-04-19T05:32:47.666Z,95635.27
2018-04-19T05:35:15.347Z,95632.26
2018-04-19T05:37:43.031Z,95632.94
2018-04-19T05:40:10.703Z,95637.64
2018-04-19T05:42:38.343Z,95625.66
2018-04-19T05:45:05.981Z,95634.59
2018-04-19T05:47:33.643Z,95638.56
2018-04-19T05:50:01.289Z,95632.41
2018-04-19T05:52:28.935Z,95634.17
2018-04-19T05:54:56.582Z,95627.05
2018-04-19T05:57:24.337Z,95637.12
2018-04-19T05:59:51.964Z,95630.80
2018-04-19T06:02:19.647Z,95628.61
2018-04-19T06:04:47.341Z,95622.69
2018-04-19T06:07:15.045Z,95624.77
2018-04-19T06:09:42.726Z,95618.97
2018-04-19T06:12:10.390Z,95616.70
2018-04-19T06:14:38.033Z,95615.78
2018-04-19T06:17:05.753Z,95617.34
2018-04-19T06:19:33.449Z,95615.22
2018-04-19T06:22:01.123Z,95609.55
2018-04-19T06:24:28.799Z,95608.84
2018-04-19T06:26:56.468Z,95608.59
2018-04-19T06:29:24.133Z,95608.00
2018-04-19T06:31:51.737Z,95611.22
2018-04-19T06:34:19.374Z,95609.27
2018-04-19T06:36:47.027Z,95598.48
2018-04-19T06:39:14.665Z,95594.83
2018-04-19T06:41:42.319Z,95591.39
2018-04-19T06:44:09.975Z,95591.08
2018-04-19T06:46:37.666Z,95596.69
2018-04-19T06:49:05.289Z,95597.69
2018-04-19T06:51:33.034Z,95585.35
2018-04-19T06:54:00.732Z,95593.38
2018-04-19T06:56:28.355Z,95591.81
2018-04-19T06:58:56.749Z,95594.64
2018-04-19T07:01:24.415Z,95588.59
2018-04-19T07:03:52.096Z,95587.83
2018-04-19T07:06:19.696Z,95585.67
2018-04-19T07:08:47.376Z,95579.98
2018-04-19T07:11:15.051Z,95580.46
2018-04-19T07:13:42.713Z,95572.50
2018-04-19T07:16:10.386Z,95568.34
2018-04-19T07:18:38.008Z,95573.39
2018-04-19T07:21:05.654Z,95560.20
2018-04-19T07:23:33.250Z,95556.05
2018-04-19T07:26:00.963Z,95552.39
2018-04-19T07:28:29.391Z,95551.13
2018-04-19T07:30:57.153Z,95545.24
2018-04-19T07:33:24.811Z,95545.55
2018-04-19T07:35:52.413Z,95545.16
2018-04-19T07:38:20.133Z,95541.27
2018-04-19T07:40:47.755Z,95536.13
2018-04-19T07:43:15.427Z,95538.52
2018-04-19T07:45:43.104Z,95541.58
2018-04-19T07:48:10.724Z,95539.06
2018-04-19T07:50:38.413Z,95541.78
2018-04-19T07:53:06.051Z,95532.13
2018-04-19T07:55:33.774Z,95536.99
2018-04-19T07:58:01.549Z,95532.23
2018-04-19T08:00:29.131Z,95532.28
2018-04-19T08:02:56.760Z,95528.14
2018-04-19T08:05:24.409Z,95526.98
2018-04-19T08:07:52.090Z,95523.53
2018-04-19T08:10:19.774Z,95522.13
2018-04-19T08:12:47.419Z,95511.73
2018-04-19T08:15:15.048Z,95512.80
2018-04-19T08:17:42.723Z,95506.92
2018-04-19T08:20:10.347Z,95507.23
2018-04-19T08:22:37.935Z,95505.47
2018-04-19T08:25:05.583Z,95495.92
2018-04-19T08:27:33.236Z,95491.00
2018-04-19T08:30:01.822Z,95497.95
2018-04-19T08:32:29.400Z,95494.34
2018-04-19T08:34:57.048Z,95493.31
2018-04-19T08:37:24.754Z,95489.70
2018-04-19T08:39:52.369Z,95492.67
2018-04-19T08:42:20.024Z,95488.09
2018-04-19T08:44:47.619Z,95479.51
2018-04-19T08:47:15.291Z,95494.58
2018-04-19T08:49:42.959Z,95486.68
2018-04-19T08:52:10.604Z,95486.38
2018-04-19T08:54:38.225Z,95484.94
2018-04-19T08:57:05.845Z,95480.38
2018-04-19T08:59:33.508Z,95480.38
2018-04-19T09:02:01.556Z,95474.56
2018-04-19T09:04:29.294Z,95475.98
2018-04-19T09:06:56.886Z,95476.91
2018-04-19T09:09:24.524Z,95472.91
2018-04-19T09:11:52.161Z,95467.53
2018-04-19T09:14:19.798Z,95463.70
2018-04-19T09:16:47.493Z,95465.39
2018-04-19T09:19:15.116Z,95463.50
2018-04-19T09:21:42.726Z,95462.22
2018-04-19T09:24:10.364Z,95453.59
2018-04-19T09:26:38.028Z,95448.01
2018-04-19T09:29:05.626Z,95445.07
2018-04-19T09:31:33.353Z,95440.62
2018-04-19T09:34:00.970Z,95439.23
2018-04-19T09:36:28.677Z,95437.23
2018-04-19T09:38:56.359Z,95438.30
2018-04-19T09:41:23.997Z,95436.47
2018-04-19T09:43:51.663Z,95433.28
2018-04-19T09:46:19.251Z,95427.72
2018-04-19T09:48:46.937Z,95429.23
2018-04-19T09:51:14.697Z,95423.02
2018-04-19T09:53:42.343Z,95418.86
2018-04-19T09:56:09.979Z,95411.69
2018-04-19T09:58:37.675Z,95414.19
2018-04-19T10:01:09.249Z,95404.84
2018-04-19T10:03:42.404Z,95402.56
2018-04-19T10:06:09.994Z,95398.00
2018-04-19T10:08:38.225Z,95390.96
2018-04-19T10:11:05.813Z,95390.73
2018-04-19T10:13:33.416Z,95387.14
2018-04-19T10:16:01.086Z,95383.92
2018-04-19T10:18:28.673Z,95383.99
2018-04-19T10:20:56.335Z,95373.36
2018-04-19T10:23:23.999Z,95371.11
2018-04-19T10:25:51.603Z,95365.78
2018-04-19T10:28:19.229Z,95370.09
2018-04-19T10:30:46.859Z,95365.36
2018-04-19T10:33:14.528Z,95359.06
2018-04-19T10:35:42.169Z,95360.35
2018-04-19T10:38:09.858Z,95355.17
2018-04-19T10:40:37.593Z,95357.73
2018-04-19T10:43:05.255Z,95356.97
2018-04-19T10:45:33.003Z,95353.39
2018-04-19T10:48:00.682Z,95343.41
2018-04-19T10:50:28.350Z,95338.72
2018-04-19T10:52:55.958Z,95342.45
2018-04-19T10:55:23.609Z,95333.20
2018-04-19T10:57:51.290Z,95333.36
2018-04-19T11:00:18.901Z,95322.97
2018-04-19T11:02:46.562Z,95320.02
2018-04-19T11:05:14.206Z,95321.41
2018-04-19T11:07:41.856Z,95316.02
2018-04-19T11:10:09.511Z,95304.66
2018-04-19T11:12:37.121Z,95307.73
2018-04-19T11:15:04.781Z,95314.22
2018-04-19T11:17:32.451Z,95301.64
2018-04-19T11:20:00.071Z,95299.09
2018-04-19T11:22:27.766Z,95302.19
2018-04-19T11:24:55.459Z,95293.95
2018-04-19T11:27:23.083Z,95293.04
2018-04-19T11:29:51.605Z,95290.92
2018-04-19T11:32:19.212Z,95297.98
2018-04-19T11:34:46.887Z,95285.81
2018-04-19T11:37:14.556Z,95281.22
2018-04-19T11:39:42.608Z,95277.97
2018-04-19T11:42:10.323Z,95277.39
2018-04-19T11:44:37.938Z,95278.02
2018-04-19T11:47:05.577Z,95272.36
2018-04-19T11:49:33.158Z,95276.91
2018-04-19T11:52:01.399Z,95275.33
2018-04-19T11:54:29.100Z,95275.22
2018-04-19T11:56:56.756Z,95266.27
2018-04-19T11:59:24.412Z,95273.47
2018-04-19T12:01:52.052Z,95263.83
2018-04-19T12:04:19.693Z,95262.95
2018-04-19T12:06:47.324Z,95257.52
2018-04-19T12:09:14.975Z,95257.55
2018-04-19T12:11:43.843Z,95248.47
2018-04-19T12:14:11.523Z,95253.03
2018-04-19T12:16:39.187Z,95249.89
2018-04-19T12:19:06.782Z,95250.94
2018-04-19T12:21:34.458Z,95237.94
2018-04-19T12:24:02.138Z,95236.14
2018-04-19T12:26:29.824Z,95236.72
2018-04-19T12:28:58.667Z,95232.95
2018-04-19T12:31:26.275Z,95232.09
2018-04-19T12:33:53.919Z,95225.90
2018-04-19T12:36:21.652Z,95221.23
2018-04-19T12:38:49.341Z,95225.75
2018-04-19T12:41:17.154Z,95221.45
2018-04-19T12:43:44.799Z,95219.81
2018-04-19T12:46:12.469Z,95216.38
2018-04-19T12:48:40.209Z,95206.36
2018-04-19T12:51:07.885Z,95209.92
2018-04-19T12:53:36.553Z,95202.36
2018-04-19T12:56:04.343Z,95201.34
2018-04-19T12:58:31.962Z,95196.20
2018-04-19T13:00:59.631Z,95195.62
2018-04-19T13:03:27.325Z,95190.72
2018-04-19T13:05:55.554Z,95190.00
2018-04-19T13:08:24.497Z,95184.94
2018-04-19T13:10:52.469Z,95176.96
2018-04-19T13:13:20.125Z,95172.53
2018-04-19T13:15:47.757Z,95170.52
2018-04-19T13:18:15.411Z,95169.88
2018-04-19T13:20:43.017Z,95165.33
2018-04-19T13:23:10.789Z,95173.16
2018-04-19T13:25:38.403Z,95160.11
2018-04-19T13:28:06.141Z,95162.23
2018-04-19T13:30:33.766Z,95164.41
2018-04-19T13:33:01.428Z,95155.14
2018-04-19T13:35:29.077Z,95154.42
2018-04-19T13:37:56.787Z,95152.44
2018-04-19T13:40:24.825Z,95145.96
2018-04-19T13:42:53.064Z,95136.39
2018-04-19T13:45:21.071Z,95126.89
2018-04-19T13:47:49.148Z,95131.50
2018-04-19T13:50:16.774Z,95129.15
2018-04-19T13:52:44.448Z,95118.09
2018-04-19T13:55:12.705Z,95114.57
2018-04-19T13:57:40.504Z,95112.17
2018-04-19T14:00:08.348Z,95109.45
2018-04-19T14:02:36.132Z,95108.53
2018-04-19T14:05:03.981Z,95109.69
2018-04-19T14:07:32.178Z,95097.30
2018-04-19T14:09:59.946Z,95099.15
2018-04-19T14:12:27.597Z,95096.52
2018-04-19T14:14:55.974Z,95095.46
2018-04-19T14:17:23.732Z,95099.88
2018-04-19T14:19:51.633Z,95090.72
2018-04-19T14:22:19.281Z,95091.34
2018-04-19T14:24:47.556Z,95091.12
2018-04-19T14:27:16.283Z,95087.43
2018-04-19T14:29:44.113Z,95087.34
2018-04-19T14:32:12.083Z,95082.64
2018-04-19T14:34:39.949Z,95080.38
2018-04-19T14:37:07.641Z,95071.83
2018-04-19T14:39:35.387Z,95075.08
2018-04-19T14:42:04.123Z,95071.25
2018-04-19T14:44:32.541Z,95069.21
2018-04-19T14:47:00.211Z,95069.80
2018-04-19T14:49:28.482Z,95064.98
2018-04-19T14:51:56.292Z,95070.92
2018-04-19T14:54:24.014Z,95070.42
2018-04-19T14:56:51.676Z,95069.71
2018-04-19T14:59:19.696Z,95063.68
2018-04-19T15:01:47.358Z,95064.23
2018-04-19T15:04:15.059Z,95066.67
2018-04-19T15:06:42.717Z,95064.63
2018-04-19T15:09:10.603Z,95066.34
2018-04-19T15:11:39.079Z,95063.05
2018-04-19T15:14:07.132Z,95064.40
2018-04-19T15:16:34.768Z,95056.04
2018-04-19T15:19:02.468Z,95063.28
2018-04-19T15:21:30.135Z,95059.74
2018-04-19T15:23:57.878Z,95053.08
2018-04-19T15:26:25.524Z,95059.83
2018-04-19T15:28:53.235Z,95061.77
2018-04-19T15:31:20.877Z,95058.27
2018-04-19T15:33:48.655Z,95057.23
2018-04-19T15:36:16.490Z,95051.45
2018-04-19T15:38:44.189Z,95050.09
2018-04-19T15:41:11.936Z,95053.08
2018-04-19T15:43:40.714Z,95054.73
2018-04-19T15:46:09.849Z,95046.67
2018-04-19T15:48:37.556Z,95045.35
2018-04-19T15:51:05.182Z,95041.74
2018-04-19T15:53:32.879Z,95044.18
2018-04-19T15:56:00.487Z,95038.75
2018-04-19T15:58:28.151Z,95043.09
2018-04-19T16:00:55.849Z,95033.45
2018-04-19T16:03:23.474Z,95038.42
2018-04-19T16:05:51.186Z,95043.21
2018-04-19T16:08:18.885Z,95037.26
2018-04-19T16:10:46.637Z,95036.48
2018-04-19T16:13:15.565Z,95038.17
2018-04-19T16:15:43.183Z,95032.05
2018-04-19T16:18:10.832Z,95030.81
2018-04-19T16:20:38.503Z,95031.02
2018-04-19T16:23:06.134Z,95031.81
2018-04-19T16:25:33.858Z,95036.34
2018-04-19T16:28:01.557Z,95035.06
2018-04-19T16:30:29.252Z,95036.52
2018-04-19T16:32:56.937Z,95036.65
2018-04-19T16:35:24.552Z,95036.80
2018-04-19T16:37:52.383Z,95032.97
2018-04-19T16:40:20.021Z,95031.92
2018-04-19T16:42:47.716Z,95033.53
2018-04-19T16:45:15.439Z,95029.97
2018-04-19T16:47:43.145Z,95034.70
2018-04-19T16:50:10.883Z,95036.09
2018-04-19T16:52:38.608Z,95029.63
2018-04-19T16:55:07.399Z,95029.88
2018-04-19T16:57:35.044Z,95030.01
2018-04-19T17:00:02.891Z,95033.81
2018-04-19T17:02:30.613Z,95036.03
2018-04-19T17:04:58.394Z,95032.34
2018-04-19T17:07:26.084Z,95031.41
2018-04-19T17:09:53.853Z,95033.11
2018-04-19T17:12:22.594Z,95044.12
2018-04-19T17:14:51.311Z,95049.54
2018-04-19T17:17:19.037Z,95052.30
2018-04-19T17:19:46.669Z,95046.01
2018-04-19T17:22:14.448Z,95046.35
2018-04-19T17:24:42.306Z,95050.44
2018-04-19T17:27:11.490Z,95048.48
2018-04-19T17:29:40.393Z,95051.07
2018-04-19T17:32:08.046Z,95053.25
2018-04-19T17:34:35.872Z,95057.67
2018-04-19T17:37:03.630Z,95058.45
2018-04-19T17:39:31.366Z,95066.20
2018-04-19T17:41:59.092Z,95069.47
2018-04-19T17:44:26.722Z,95071.55
2018-04-19T17:46:54.411Z,95070.55
2018-04-19T17:49:22.274Z,95078.23
2018-04-19T17:51:49.978Z,95081.98
2018-04-19T17:54:17.686Z,95086.58
2018-04-19T17:56:46.513Z,95083.38
2018-04-19T17:59:14.199Z,95081.07
2018-04-19T18:01:41.846Z,95089.20
2018-04-19T18:04:09.627Z,95088.53
2018-04-19T18:06:37.248Z,95089.81
2018-04-19T18:09:04.949Z,95094.63
2018-04-19T18:11:32.597Z,95097.67
2018-04-19T18:14:00.374Z,95104.69
2018-04-19T18:16:28.068Z,95108.88
2018-04-19T18:18:55.757Z,95106.64
2018-04-19T18:21:23.457Z,95113.91
2018-04-19T18:23:51.071Z,95123.36
2018-04-19T18:26:18.783Z,95124.53
2018-04-19T18:28:46.452Z,95134.32
2018-04-19T18:31:14.157Z,95131.17
2018-04-19T18:33:41.780Z,95145.14
2018-04-19T18:36:09.485Z,95144.47
2018-04-19T18:38:37.101Z,95142.72
2018-04-19T18:41:04.934Z,95149.00
2018-04-19T18:43:32.617Z,95149.44
2018-04-19T18:46:00.271Z,95162.64
2018-04-19T18:48:27.986Z,95160.65
2018-04-19T18:50:55.720Z,95163.38
2018-04-19T18:53:23.341Z,95164.17
2018-04-19T18:55:51.094Z,95170.81
2018-04-19T18:58:18.824Z,95169.50
2018-04-19T19:00:46.595Z,95172.82
2018-04-19T19:03:14.253Z,95182.52
2018-04-19T19:05:42.021Z,95185.08
2018-04-19T19:08:09.797Z,95187.56
2018-04-19T19:10:37.543Z,95195.22
2018-04-19T19:13:05.561Z,95199.26
2018-04-19T19:18:54.407Z,95210.22
2018-04-19T19:21:22.068Z,95211.06
2018-04-19T19:23:49.728Z,95204.27
2018-04-19T19:26:17.435Z,95212.19
2018-04-19T19:28:45.121Z,95209.16
2018-04-19T19:31:12.807Z,95208.04
2018-04-19T19:33:40.480Z,95215.52
2018-04-19T19:36:08.163Z,95220.03
2018-04-19T19:38:35.839Z,95217.66
2018-04-19T19:41:03.531Z,95222.55
2018-04-19T19:43:31.232Z,95222.91
2018-04-19T19:45:58.889Z,95230.43
2018-04-19T19:48:26.486Z,95230.56
2018-04-19T19:50:54.177Z,95230.25
2018-04-19T19:53:21.965Z,95228.69
2018-04-19T19:55:49.576Z,95231.97
2018-04-19T19:58:17.299Z,95228.77
2018-04-19T20:00:44.944Z,95232.58
2018-04-19T20:03:12.627Z,95232.58
2018-04-19T20:05:40.337Z,95231.96
2018-04-19T20:08:08.116Z,95234.33
2018-04-19T20:10:35.787Z,95232.33
2018-04-19T20:13:03.453Z,95235.20
2018-04-19T20:15:31.130Z,95236.91
2018-04-19T20:17:58.818Z,95235.95
2018-04-19T20:20:26.503Z,95234.47
2018-04-19T20:22:54.219Z,95234.52
2018-04-19T20:25:21.926Z,95239.13
2018-04-19T20:27:49.632Z,95243.80
2018-04-19T20:30:17.312Z,95253.80
2018-04-19T20:32:45.150Z,95246.46
2018-04-19T20:35:12.946Z,95249.53
2018-04-19T20:37:40.639Z,95251.87
2018-04-19T20:40:08.649Z,95257.91
2018-04-19T20:42:36.251Z,95260.91
2018-04-19T20:45:03.953Z,95263.17
2018-04-19T20:47:31.579Z,95263.78
2018-04-19T20:49:59.274Z,95265.13
2018-04-19T20:52:26.975Z,95260.31
2018-04-19T20:54:54.631Z,95270.40
2018-04-19T20:57:22.450Z,95272.91
2018-04-19T20:59:50.243Z,95272.97
2018-04-19T21:02:17.877Z,95279.25
2018-04-19T21:04:45.590Z,95273.74
2018-04-19T21:07:13.238Z,95275.84
2018-04-19T21:09:40.913Z,95281.48
2018-04-19T21:12:08.592Z,95274.73
2018-04-19T21:14:36.259Z,95271.42
2018-04-19T21:17:03.859Z,95274.02
2018-04-19T21:19:31.575Z,95275.02
2018-04-19T21:21:59.253Z,95283.98
2018-04-19T21:24:26.929Z,95273.14
2018-04-19T21:26:54.577Z,95277.58
2018-04-19T21:29:22.867Z,95284.05
2018-04-19T21:31:50.481Z,95278.53
2018-04-19T21:34:18.221Z,95282.06
2018-04-19T21:36:45.991Z,95285.81
2018-04-19T21:39:13.598Z,95291.34
2018-04-19T21:41:41.234Z,95288.33
2018-04-19T21:44:08.920Z,95288.31
2018-04-19T21:46:36.656Z,95293.09
2018-04-19T21:49:04.250Z,95293.73
2018-04-19T21:51:31.917Z,95294.20
2018-04-19T21:53:59.545Z,95292.23
2018-04-19T21:56:27.220Z,95306.48
2018-04-19T21:58:54.838Z,95302.88
2018-04-19T22:01:22.575Z,95301.75
2018-04-19T22:03:50.188Z,95297.94
2018-04-19T22:06:17.877Z,95296.23
2018-04-19T22:11:12.512Z,95299.97
2018-04-19T22:13:40.164Z,95298.59
2018-04-19T22:16:07.782Z,95297.55
2018-04-19T22:18:35.452Z,95296.45
2018-04-19T22:21:03.091Z,95296.77
2018-04-19T22:23:30.736Z,95296.53
2018-04-19T22:25:58.406Z,95299.77
2018-04-19T22:28:26.002Z,95299.16
2018-04-19T22:30:53.716Z,95300.19
2018-04-19T22:33:21.384Z,95296.59
2018-04-19T22:35:49.027Z,95309.28
2018-04-19T22:38:16.661Z,95302.67
2018-04-19T22:40:44.266Z,95296.34
2018-04-19T22:43:12.076Z,95303.47
2018-04-19T22:45:39.724Z,95292.99
2018-04-19T22:48:07.390Z,95291.09
2018-04-19T22:50:35.091Z,95295.20
2018-04-19T22:53:02.753Z,95299.66
2018-04-19T22:55:30.419Z,95289.75
2018-04-19T22:57:58.174Z,95289.23
2018-04-19T23:00:29.388Z,95293.91
2018-04-19T23:02:56.981Z,95289.95
2018-04-19T23:05:24.615Z,95295.12
2018-04-19T23:07:52.264Z,95294.09
2018-04-19T23:10:19.852Z,95291.72
2018-04-19T23:12:47.494Z,95291.30
2018-04-19T23:15:15.146Z,95294.55
2018-04-19T23:17:42.799Z,95303.72
2018-04-19T23:20:10.468Z,95303.31
2018-04-19T23:22:38.099Z,95300.12
2018-04-19T23:25:05.878Z,95303.64
2018-04-19T23:27:33.498Z,95297.64
2018-04-19T23:30:01.160Z,95302.86
2018-04-19T23:32:28.816Z,95292.45
2018-04-19T23:34:56.523Z,95300.64
2018-04-19T23:37:24.098Z,95292.56
2018-04-19T23:39:51.769Z,95291.14
2018-04-19T23:42:19.429Z,95292.47
2018-04-19T23:44:47.091Z,95288.36
2018-04-19T23:47:14.677Z,95285.95
2018-04-19T23:49:42.345Z,95288.69
2018-04-19T23:52:10.614Z,95284.99
2018-04-19T23:54:38.273Z,95286.20
2018-04-19T23:57:05.984Z,95290.42
2018-04-19T23:59:33.595Z,95284.06
